createdAt,value
2019-03-17T00:02:11.275Z,82.59
2019-03-17T00:04:42.722Z,82.45
2019-03-17T00:07:13.864Z,82.72
2019-03-17T00:09:45.724Z,83.25
2019-03-17T00:12:16.664Z,83.29
2019-03-17T00:14:47.645Z,82.87
2019-03-17T00:17:18.227Z,82.93
2019-03-17T00:19:48.547Z,83.66
2019-03-17T00:22:19.385Z,84.37
2019-03-17T00:24:50.566Z,84.41
2019-03-17T00:27:20.952Z,84.55
2019-03-17T00:29:51.685Z,84.79
2019-03-17T00:32:23.994Z,85.00
2019-03-17T00:34:54.482Z,84.93
2019-03-17T00:37:25.007Z,84.61
2019-03-17T00:39:55.432Z,84.88
2019-03-17T00:42:26.805Z,85.20
2019-03-17T00:44:57.716Z,85.03
2019-03-17T00:47:28.154Z,84.76
2019-03-17T00:50:00.719Z,84.50
2019-03-17T00:52:31.205Z,84.56
2019-03-17T00:55:02.502Z,83.89
2019-03-17T00:57:33.363Z,83.39
2019-03-17T01:00:06.031Z,83.55
2019-03-17T01:02:36.886Z,83.54
2019-03-17T01:05:08.186Z,82.87
2019-03-17T01:07:39.049Z,83.20
2019-03-17T01:10:10.060Z,83.03
2019-03-17T01:12:44.946Z,82.92
2019-03-17T01:15:15.115Z,82.49
2019-03-17T01:17:48.202Z,82.70
2019-03-17T01:20:18.553Z,82.58
2019-03-17T01:22:49.149Z,82.58
2019-03-17T01:25:19.571Z,82.41
2019-03-17T01:27:50.203Z,82.60
2019-03-17T01:30:21.696Z,82.34
2019-03-17T01:32:52.286Z,82.64
2019-03-17T01:35:23.014Z,82.59
2019-03-17T01:37:53.643Z,82.73
2019-03-17T01:40:24.175Z,82.42
2019-03-17T01:42:54.803Z,82.79
2019-03-17T01:45:26.084Z,82.29
2019-03-17T01:47:56.517Z,81.97
2019-03-17T01:50:27.209Z,82.51
2019-03-17T01:52:57.836Z,81.65
2019-03-17T01:55:28.670Z,81.89
2019-03-17T01:57:59.197Z,81.26
2019-03-17T02:00:30.544Z,80.97
2019-03-17T02:03:00.649Z,81.21
2019-03-17T02:05:31.192Z,80.88
2019-03-17T02:08:01.616Z,80.61
2019-03-17T02:10:32.657Z,80.78
2019-03-17T02:13:03.602Z,80.71
2019-03-17T02:15:33.710Z,80.70
2019-03-17T02:18:04.239Z,80.60
2019-03-17T02:20:35.110Z,80.73
2019-03-17T02:23:06.055Z,80.31
2019-03-17T02:25:36.537Z,80.24
2019-03-17T02:28:07.054Z,80.30
2019-03-17T02:30:37.554Z,80.24
2019-03-17T02:33:08.227Z,80.11
2019-03-17T02:35:40.215Z,80.22
2019-03-17T02:38:10.920Z,80.30
2019-03-17T02:40:41.448Z,80.38
2019-03-17T02:43:12.177Z,80.13
2019-03-17T02:45:43.012Z,79.92
2019-03-17T02:48:13.134Z,79.63
2019-03-17T02:50:44.478Z,80.27
2019-03-17T02:53:14.798Z,79.99
2019-03-17T02:55:45.427Z,79.40
2019-03-17T02:58:16.578Z,79.29
2019-03-17T03:00:47.107Z,79.27
2019-03-17T03:03:18.448Z,79.21
2019-03-17T03:05:55.355Z,79.55
2019-03-17T03:08:23.181Z,79.53
2019-03-17T03:10:55.867Z,79.30
2019-03-17T03:13:26.293Z,78.77
2019-03-17T03:15:58.565Z,78.74
2019-03-17T03:18:28.993Z,78.68
2019-03-17T03:21:00.973Z,78.69
2019-03-17T03:23:31.470Z,78.64
2019-03-17T03:26:02.692Z,78.77
2019-03-17T03:28:33.146Z,78.75
2019-03-17T03:31:04.500Z,78.71
2019-03-17T03:33:34.807Z,78.58
2019-03-17T03:36:11.229Z,79.11
2019-03-17T03:38:40.273Z,78.99
2019-03-17T03:41:10.558Z,78.64
2019-03-17T03:43:41.222Z,78.81
2019-03-17T03:46:12.179Z,79.15
2019-03-17T03:48:44.000Z,78.90
2019-03-17T03:51:15.786Z,79.01
2019-03-17T03:53:46.688Z,79.16
2019-03-17T03:56:17.749Z,79.23
2019-03-17T03:58:50.026Z,79.26
2019-03-17T04:01:20.242Z,79.40
2019-03-17T04:03:50.894Z,79.00
2019-03-17T04:06:26.892Z,79.36
2019-03-17T04:08:53.358Z,78.92
2019-03-17T04:11:24.134Z,79.13
2019-03-17T04:13:54.830Z,79.30
2019-03-17T04:16:25.467Z,79.36
2019-03-17T04:18:55.996Z,79.22
2019-03-17T04:21:28.235Z,79.33
2019-03-17T04:23:58.634Z,79.32
2019-03-17T04:26:30.025Z,79.27
2019-03-17T04:29:00.180Z,79.38
2019-03-17T04:31:31.083Z,79.23
2019-03-17T04:34:01.706Z,79.17
2019-03-17T04:36:40.160Z,78.74
2019-03-17T04:39:06.861Z,79.03
2019-03-17T04:41:37.182Z,79.11
2019-03-17T04:44:20.005Z,78.76
2019-03-17T04:46:40.679Z,78.70
2019-03-17T04:49:11.360Z,78.78
2019-03-17T04:51:42.054Z,78.68
2019-03-17T04:54:12.791Z,78.69
2019-03-17T04:56:44.631Z,78.43
2019-03-17T04:59:15.378Z,78.60
2019-03-17T05:01:46.113Z,78.27
2019-03-17T05:04:17.584Z,78.24
2019-03-17T05:06:52.585Z,78.38
2019-03-17T05:09:21.181Z,77.89
2019-03-17T05:11:52.041Z,78.05
2019-03-17T05:14:22.850Z,77.56
2019-03-17T05:16:54.436Z,77.67
2019-03-17T05:19:25.643Z,77.92
2019-03-17T05:21:55.967Z,77.78
2019-03-17T05:24:26.911Z,77.79
2019-03-17T05:26:57.533Z,77.78
2019-03-17T05:29:28.371Z,77.57
2019-03-17T05:31:59.410Z,77.07
2019-03-17T05:34:29.785Z,76.71
2019-03-17T05:37:06.574Z,76.56
2019-03-17T05:39:33.244Z,76.21
2019-03-17T05:42:03.978Z,75.78
2019-03-17T05:44:34.492Z,76.07
2019-03-17T05:47:06.054Z,76.45
2019-03-17T05:49:37.281Z,76.59
2019-03-17T05:52:08.574Z,76.66
2019-03-17T05:54:38.971Z,76.70
2019-03-17T05:57:09.409Z,76.77
2019-03-17T05:59:40.827Z,76.38
2019-03-17T06:02:12.814Z,76.36
2019-03-17T06:04:44.358Z,76.04
2019-03-17T06:07:18.945Z,75.53
2019-03-17T06:09:48.592Z,74.43
2019-03-17T06:12:21.263Z,74.32
2019-03-17T06:14:51.792Z,74.02
2019-03-17T06:17:22.525Z,73.96
2019-03-17T06:19:53.770Z,72.04
2019-03-17T06:22:25.323Z,71.22
2019-03-17T06:24:56.769Z,71.26
2019-03-17T06:27:28.631Z,71.31
2019-03-17T06:29:58.847Z,70.60
2019-03-17T06:32:29.582Z,71.59
2019-03-17T06:35:00.361Z,72.56
2019-03-17T06:37:31.494Z,72.56
2019-03-17T06:40:02.910Z,72.13
2019-03-17T06:42:33.606Z,72.14
2019-03-17T06:45:05.494Z,70.87
2019-03-17T06:47:35.738Z,70.51
2019-03-17T06:50:13.946Z,70.11
2019-03-17T06:52:44.351Z,70.65
2019-03-17T06:55:16.683Z,70.65
2019-03-17T06:57:47.044Z,71.05
2019-03-17T07:00:17.877Z,70.42
2019-03-17T07:02:48.381Z,70.38
2019-03-17T07:05:19.138Z,70.93
2019-03-17T07:07:50.434Z,70.54
2019-03-17T07:10:22.769Z,69.86
2019-03-17T07:12:53.497Z,68.35
2019-03-17T07:15:25.155Z,68.04
2019-03-17T07:17:55.470Z,68.80
2019-03-17T07:20:26.299Z,68.75
2019-03-17T07:22:57.101Z,69.26
2019-03-17T07:25:27.663Z,68.76
2019-03-17T07:27:59.135Z,68.39
2019-03-17T07:30:29.535Z,69.65
2019-03-17T07:33:00.828Z,69.77
2019-03-17T07:35:33.642Z,69.08
2019-03-17T07:38:04.905Z,68.66
2019-03-17T07:40:35.636Z,67.09
2019-03-17T07:43:06.375Z,65.48
2019-03-17T07:45:39.362Z,64.64
2019-03-17T07:48:09.958Z,62.35
2019-03-17T07:50:40.821Z,62.68
2019-03-17T07:53:12.284Z,61.69
2019-03-17T07:55:42.594Z,62.95
2019-03-17T07:58:13.327Z,63.02
2019-03-17T08:00:44.037Z,63.34
2019-03-17T08:03:14.687Z,63.66
2019-03-17T08:05:45.627Z,64.40
2019-03-17T08:08:16.374Z,65.04
2019-03-17T08:10:47.409Z,65.39
2019-03-17T08:13:18.651Z,66.27
2019-03-17T08:15:49.364Z,66.27
2019-03-17T08:18:19.898Z,66.22
2019-03-17T08:20:50.065Z,66.19
2019-03-17T08:23:21.545Z,66.12
2019-03-17T08:25:53.712Z,67.13
2019-03-17T08:28:25.789Z,67.80
2019-03-17T08:30:56.330Z,68.58
2019-03-17T08:33:27.288Z,68.89
2019-03-17T08:35:59.027Z,69.49
2019-03-17T08:38:30.983Z,69.44
2019-03-17T08:41:02.765Z,69.11
2019-03-17T08:43:33.471Z,69.12
2019-03-17T08:46:03.681Z,68.71
2019-03-17T08:48:34.233Z,67.45
2019-03-17T08:51:04.747Z,65.32
2019-03-17T08:53:35.397Z,64.87
2019-03-17T08:56:06.641Z,63.17
2019-03-17T08:58:36.945Z,62.28
2019-03-17T09:01:08.479Z,64.21
2019-03-17T09:03:40.559Z,65.80
2019-03-17T09:06:11.292Z,66.12
2019-03-17T09:08:42.620Z,67.14
2019-03-17T09:11:15.421Z,68.93
2019-03-17T09:13:45.955Z,69.85
2019-03-17T09:16:16.588Z,69.20
2019-03-17T09:18:47.130Z,68.65
2019-03-17T09:21:19.108Z,67.14
2019-03-17T09:23:49.933Z,67.07
2019-03-17T09:26:22.273Z,62.58
2019-03-17T09:28:53.723Z,60.01
2019-03-17T09:31:23.910Z,58.78
2019-03-17T09:33:55.660Z,59.12
2019-03-17T09:36:27.247Z,59.71
2019-03-17T09:38:58.210Z,60.72
2019-03-17T09:41:28.745Z,60.11
2019-03-17T09:43:59.345Z,62.40
2019-03-17T09:46:30.489Z,62.43
2019-03-17T09:49:01.939Z,62.87
2019-03-17T09:51:32.358Z,62.53
2019-03-17T09:54:02.893Z,62.01
2019-03-17T09:56:35.313Z,61.76
2019-03-17T09:59:05.790Z,61.00
2019-03-17T10:01:36.479Z,60.28
2019-03-17T10:04:10.933Z,60.32
2019-03-17T10:06:41.356Z,59.24
2019-03-17T10:09:11.890Z,60.07
2019-03-17T10:11:42.619Z,60.34
2019-03-17T10:14:13.156Z,60.94
2019-03-17T10:16:44.085Z,61.57
2019-03-17T10:19:14.365Z,60.57
2019-03-17T10:21:45.042Z,60.02
2019-03-17T10:24:15.571Z,59.89
2019-03-17T10:26:46.202Z,60.22
2019-03-17T10:29:17.133Z,60.07
2019-03-17T10:31:48.456Z,59.96
2019-03-17T10:34:19.727Z,59.35
2019-03-17T10:36:49.946Z,58.89
2019-03-17T10:39:22.123Z,57.11
2019-03-17T10:41:54.287Z,56.76
2019-03-17T10:44:24.715Z,56.51
2019-03-17T10:46:56.205Z,58.15
2019-03-17T10:49:27.239Z,60.31
2019-03-17T10:51:58.520Z,62.38
2019-03-17T10:54:28.979Z,62.85
2019-03-17T10:56:59.902Z,63.70
2019-03-17T10:59:30.639Z,64.30
2019-03-17T11:02:01.296Z,65.08
2019-03-17T11:04:31.893Z,64.03
2019-03-17T11:07:05.497Z,64.08
2019-03-17T11:09:36.728Z,63.90
2019-03-17T11:12:08.112Z,63.05
2019-03-17T11:14:38.923Z,63.26
2019-03-17T11:17:09.664Z,63.53
2019-03-17T11:19:40.219Z,61.27
2019-03-17T11:22:12.156Z,62.33
2019-03-17T11:24:43.681Z,59.29
2019-03-17T11:27:14.019Z,58.19
2019-03-17T11:29:47.006Z,57.26
2019-03-17T11:32:17.235Z,57.22
2019-03-17T11:34:47.958Z,55.15
2019-03-17T11:37:18.486Z,49.54
2019-03-17T11:39:51.029Z,44.04
2019-03-17T11:42:22.337Z,37.95
2019-03-17T11:44:53.139Z,39.11
2019-03-17T11:47:23.670Z,43.52
2019-03-17T11:49:54.607Z,49.76
2019-03-17T11:52:27.154Z,54.86
2019-03-17T11:54:58.447Z,56.34
2019-03-17T11:57:28.643Z,59.59
2019-03-17T12:00:02.249Z,62.04
2019-03-17T12:02:32.565Z,63.52
2019-03-17T12:05:04.527Z,64.93
2019-03-17T12:07:35.669Z,65.58
2019-03-17T12:10:11.931Z,65.38
2019-03-17T12:12:43.264Z,65.84
2019-03-17T12:15:21.820Z,65.79
2019-03-17T12:17:52.321Z,65.45
2019-03-17T12:20:22.667Z,65.43
2019-03-17T12:22:53.047Z,66.10
2019-03-17T12:25:24.242Z,65.81
2019-03-17T12:27:54.853Z,65.83
2019-03-17T12:30:30.202Z,65.47
2019-03-17T12:33:00.610Z,63.96
2019-03-17T12:35:31.131Z,62.77
2019-03-17T12:38:01.878Z,62.26
2019-03-17T12:40:32.393Z,60.65
2019-03-17T12:43:03.917Z,60.22
2019-03-17T12:45:34.574Z,59.50
2019-03-17T12:48:05.416Z,58.39
2019-03-17T12:50:35.755Z,57.65
2019-03-17T12:53:08.025Z,57.63
2019-03-17T12:55:38.840Z,56.83
2019-03-17T12:58:09.490Z,57.30
2019-03-17T13:00:42.556Z,55.32
2019-03-17T13:03:14.827Z,53.56
2019-03-17T13:05:45.473Z,54.04
2019-03-17T13:08:16.989Z,55.47
2019-03-17T13:10:49.666Z,56.91
2019-03-17T13:13:19.806Z,59.25
2019-03-17T13:15:51.157Z,60.67
2019-03-17T13:18:21.782Z,61.18
2019-03-17T13:20:53.958Z,63.93
2019-03-17T13:23:26.522Z,64.78
2019-03-17T13:25:58.662Z,65.00
2019-03-17T13:28:29.731Z,64.99
2019-03-17T13:30:59.904Z,64.75
2019-03-17T13:33:32.935Z,64.67
2019-03-17T13:36:03.573Z,65.90
2019-03-17T13:38:34.085Z,66.27
2019-03-17T13:41:05.027Z,65.96
2019-03-17T13:43:35.516Z,66.01
2019-03-17T13:46:05.975Z,66.41
2019-03-17T13:48:36.965Z,66.19
2019-03-17T13:51:08.878Z,66.14
2019-03-17T13:53:40.367Z,65.12
2019-03-17T13:56:12.070Z,64.44
2019-03-17T13:58:43.313Z,64.09
2019-03-17T14:01:13.947Z,63.37
2019-03-17T14:03:46.434Z,62.99
2019-03-17T14:06:17.380Z,62.51
2019-03-17T14:08:48.956Z,63.06
2019-03-17T14:11:19.349Z,63.08
2019-03-17T14:13:49.875Z,62.89
2019-03-17T14:16:21.534Z,63.08
2019-03-17T14:18:52.165Z,63.55
2019-03-17T14:21:24.487Z,64.60
2019-03-17T14:23:54.955Z,65.41
2019-03-17T14:26:25.389Z,66.13
2019-03-17T14:28:56.005Z,66.19
2019-03-17T14:31:29.581Z,66.21
2019-03-17T14:34:00.032Z,66.25
2019-03-17T14:36:31.993Z,66.44
2019-03-17T14:39:02.930Z,66.91
2019-03-17T14:41:34.449Z,67.20
2019-03-17T14:44:04.600Z,67.54
2019-03-17T14:46:35.833Z,67.72
2019-03-17T14:49:07.192Z,67.75
2019-03-17T14:51:37.516Z,67.92
2019-03-17T14:54:08.249Z,67.83
2019-03-17T14:56:38.973Z,67.79
2019-03-17T14:59:12.393Z,67.98
2019-03-17T15:01:42.800Z,68.18
2019-03-17T15:04:13.423Z,67.96
2019-03-17T15:06:45.085Z,68.32
2019-03-17T15:09:15.906Z,68.68
2019-03-17T15:11:47.372Z,68.43
2019-03-17T15:14:17.995Z,68.52
2019-03-17T15:16:48.321Z,68.34
2019-03-17T15:19:21.098Z,68.21
2019-03-17T15:21:51.670Z,68.37
2019-03-17T15:24:24.337Z,68.27
2019-03-17T15:26:54.725Z,68.80
2019-03-17T15:29:28.026Z,69.00
2019-03-17T15:31:59.343Z,69.08
2019-03-17T15:34:30.493Z,69.40
2019-03-17T15:37:04.899Z,69.79
2019-03-17T15:39:34.640Z,70.09
2019-03-17T15:42:04.762Z,69.72
2019-03-17T15:44:35.299Z,69.54
2019-03-17T15:47:07.448Z,69.43
2019-03-17T15:49:38.390Z,69.17
2019-03-17T15:52:08.713Z,69.16
2019-03-17T15:54:39.219Z,69.17
2019-03-17T15:57:13.253Z,69.12
2019-03-17T15:59:43.790Z,69.17
2019-03-17T16:02:14.303Z,68.83
2019-03-17T16:04:45.242Z,68.87
2019-03-17T16:07:16.078Z,68.97
2019-03-17T16:09:47.334Z,68.50
2019-03-17T16:12:18.771Z,69.24
2019-03-17T16:14:50.721Z,68.15
2019-03-17T16:17:22.285Z,68.11
2019-03-17T16:19:52.505Z,68.60
2019-03-17T16:22:23.550Z,67.76
2019-03-17T16:24:57.142Z,67.93
2019-03-17T16:27:29.226Z,67.94
2019-03-17T16:30:00.553Z,66.88
2019-03-17T16:32:31.684Z,66.06
2019-03-17T16:35:05.806Z,66.27
2019-03-17T16:37:37.039Z,66.38
2019-03-17T16:40:19.015Z,65.56
2019-03-17T16:42:53.803Z,65.14
2019-03-17T16:45:24.303Z,65.41
2019-03-17T16:47:55.034Z,65.42
2019-03-17T16:50:28.131Z,65.20
2019-03-17T16:53:00.476Z,65.46
2019-03-17T16:55:33.569Z,65.91
2019-03-17T16:58:04.514Z,65.79
2019-03-17T17:00:35.864Z,66.24
2019-03-17T17:03:06.343Z,66.41
2019-03-17T17:05:37.771Z,66.31
2019-03-17T17:08:08.473Z,66.52
2019-03-17T17:10:39.303Z,66.38
2019-03-17T17:13:10.138Z,66.63
2019-03-17T17:15:40.834Z,66.75
2019-03-17T17:18:11.708Z,67.02
2019-03-17T17:20:42.648Z,66.92
2019-03-17T17:23:14.060Z,66.98
2019-03-17T17:25:45.241Z,66.73
2019-03-17T17:28:15.967Z,66.89
2019-03-17T17:30:47.007Z,67.24
2019-03-17T17:33:21.021Z,67.11
2019-03-17T17:35:52.515Z,67.41
2019-03-17T17:38:23.826Z,67.06
2019-03-17T17:40:54.233Z,67.35
2019-03-17T17:43:25.572Z,67.52
2019-03-17T17:45:56.318Z,67.97
2019-03-17T17:48:27.052Z,68.02
2019-03-17T17:50:57.539Z,68.17
2019-03-17T17:53:29.854Z,68.49
2019-03-17T17:56:00.784Z,68.67
2019-03-17T17:58:31.416Z,68.50
2019-03-17T18:01:02.147Z,69.18
2019-03-17T18:03:35.134Z,69.47
2019-03-17T18:06:06.486Z,69.77
2019-03-17T18:08:36.856Z,70.13
2019-03-17T18:11:07.387Z,70.76
2019-03-17T18:13:38.370Z,70.65
2019-03-17T18:16:09.622Z,71.09
2019-03-17T18:18:40.968Z,71.50
2019-03-17T18:21:11.692Z,71.62
2019-03-17T18:23:43.459Z,71.99
2019-03-17T18:26:14.036Z,71.96
2019-03-17T18:28:44.914Z,71.64
2019-03-17T18:31:19.238Z,71.90
2019-03-17T18:33:50.064Z,72.16
2019-03-17T18:36:20.826Z,72.19
2019-03-17T18:38:51.453Z,71.64
2019-03-17T18:41:22.145Z,71.59
2019-03-17T18:43:53.417Z,71.44
2019-03-17T18:46:24.038Z,71.81
2019-03-17T18:48:56.203Z,72.10
2019-03-17T18:51:28.312Z,72.81
2019-03-17T18:53:59.001Z,72.56
2019-03-17T18:56:29.730Z,72.75
2019-03-17T18:59:00.155Z,72.41
2019-03-17T19:01:30.847Z,72.65
2019-03-17T19:04:01.623Z,72.74
2019-03-17T19:06:32.311Z,72.46
2019-03-17T19:09:03.907Z,72.82
2019-03-17T19:11:34.539Z,73.11
2019-03-17T19:14:05.473Z,73.23
2019-03-17T19:16:36.203Z,73.64
2019-03-17T19:19:06.936Z,73.74
2019-03-17T19:21:38.590Z,74.66
2019-03-17T19:24:10.348Z,74.61
2019-03-17T19:26:40.976Z,75.14
2019-03-17T19:29:11.577Z,75.50
2019-03-17T19:31:42.339Z,75.47
2019-03-17T19:34:13.029Z,76.04
2019-03-17T19:36:43.904Z,75.98
2019-03-17T19:39:16.172Z,75.88
2019-03-17T19:41:46.695Z,75.69
2019-03-17T19:44:17.701Z,75.66
2019-03-17T19:46:48.467Z,74.95
2019-03-17T19:49:19.316Z,75.02
2019-03-17T19:51:50.046Z,75.43
2019-03-17T19:54:20.876Z,76.01
2019-03-17T19:56:51.608Z,76.60
2019-03-17T19:59:22.244Z,76.41
2019-03-17T20:01:52.563Z,76.52
2019-03-17T20:04:30.344Z,76.68
2019-03-17T20:06:55.667Z,76.96
2019-03-17T20:09:26.350Z,77.20
2019-03-17T20:11:57.232Z,77.15
2019-03-17T20:14:27.955Z,77.38
2019-03-17T20:16:59.384Z,77.65
2019-03-17T20:19:30.251Z,77.32
2019-03-17T20:22:02.733Z,77.37
2019-03-17T20:24:33.456Z,77.75
2019-03-17T20:27:04.186Z,77.23
2019-03-17T20:29:37.241Z,77.27
2019-03-17T20:32:08.110Z,77.24
2019-03-17T20:34:39.151Z,77.16
2019-03-17T20:37:09.881Z,77.41
2019-03-17T20:39:40.488Z,77.76
2019-03-17T20:42:12.546Z,78.15
2019-03-17T20:44:43.204Z,78.55
2019-03-17T20:47:13.837Z,78.94
2019-03-17T20:49:46.102Z,79.28
2019-03-17T20:52:17.656Z,79.42
2019-03-17T20:54:48.128Z,79.91
2019-03-17T20:57:19.532Z,80.05
2019-03-17T20:59:50.161Z,80.26
2019-03-17T21:02:20.550Z,80.15
2019-03-17T21:04:51.828Z,80.04
2019-03-17T21:07:24.404Z,80.06
2019-03-17T21:09:54.961Z,80.33
2019-03-17T21:12:25.767Z,80.49
2019-03-17T21:14:58.051Z,80.54
2019-03-17T21:17:28.393Z,80.35
2019-03-17T21:20:00.719Z,80.28
2019-03-17T21:22:31.359Z,80.26
2019-03-17T21:25:02.083Z,80.26
2019-03-17T21:27:32.735Z,80.30
2019-03-17T21:30:03.835Z,80.33
2019-03-17T21:32:35.515Z,80.12
2019-03-17T21:35:05.837Z,80.68
2019-03-17T21:37:36.370Z,80.99
2019-03-17T21:40:10.212Z,80.98
2019-03-17T21:42:40.501Z,81.15
2019-03-17T21:45:16.164Z,81.13
2019-03-17T21:47:46.812Z,80.87
2019-03-17T21:50:21.341Z,80.71
2019-03-17T21:52:51.513Z,80.67
2019-03-17T21:55:21.837Z,80.65
2019-03-17T21:57:52.424Z,80.68
2019-03-17T22:00:23.300Z,80.19
2019-03-17T22:02:55.369Z,80.00
2019-03-17T22:05:26.305Z,80.63
2019-03-17T22:07:56.944Z,80.96
2019-03-17T22:10:27.765Z,81.10
2019-03-17T22:12:58.703Z,81.05
2019-03-17T22:15:29.437Z,81.00
2019-03-17T22:18:01.906Z,80.86
2019-03-17T22:20:32.551Z,81.26
2019-03-17T22:23:03.888Z,81.57
2019-03-17T22:25:34.210Z,81.66
2019-03-17T22:28:08.518Z,81.56
2019-03-17T22:30:37.518Z,81.60
2019-03-17T22:33:08.250Z,81.64
2019-03-17T22:35:39.088Z,81.84
2019-03-17T22:38:10.555Z,82.28
2019-03-17T22:40:42.556Z,82.82
2019-03-17T22:43:14.291Z,82.77
2019-03-17T22:45:45.394Z,82.74
2019-03-17T22:48:16.208Z,83.05
2019-03-17T22:50:49.215Z,83.14
2019-03-17T22:53:20.150Z,83.33
2019-03-17T22:55:51.192Z,83.24
2019-03-17T22:58:21.516Z,83.25
2019-03-17T23:00:52.554Z,83.21
2019-03-17T23:03:22.771Z,83.26
2019-03-17T23:05:53.195Z,83.35
2019-03-17T23:08:25.600Z,83.12
2019-03-17T23:10:56.610Z,83.16
2019-03-17T23:13:27.876Z,83.41
2019-03-17T23:15:57.977Z,83.65
2019-03-17T23:18:29.121Z,83.79
2019-03-17T23:20:59.949Z,83.83
2019-03-17T23:23:31.906Z,83.85
2019-03-17T23:26:02.337Z,84.14
2019-03-17T23:28:33.275Z,84.40
2019-03-17T23:31:03.788Z,84.62
2019-03-17T23:33:34.669Z,84.55
2019-03-17T23:36:05.228Z,84.57
2019-03-17T23:38:35.996Z,84.55
2019-03-17T23:41:06.685Z,84.53
2019-03-17T23:43:37.460Z,84.62
2019-03-17T23:46:08.190Z,84.59
2019-03-17T23:48:38.924Z,84.40
2019-03-17T23:51:10.375Z,84.30
2019-03-17T23:53:40.685Z,84.51
2019-03-17T23:56:12.462Z,84.57
2019-03-17T23:58:45.125Z,84.61
